x

Eastern Caribbean - 190 Nm Nne Of Curacao (42059) Wave Buoy

5:50am - Sun 31st Aug 2014 All times are AST. -4 hours from GMT.

  • Sig Wave height 3.3ft
  • Swell Direction
  • Peak Period 5s
  • Average Period 4s
  • Wind
    18mph, 20mph gusts
  • Sea Temp 83°f
  • Air Temp 83°f
  • Sea Pressure 1014.5mb
  • Eastern Caribbean - 190 Nm Nne Of Curacao
  • Eastern Caribbean - 190 Nm Nne Of Curacao

More Historic Weather Station data

Upgrade to MSW Pro to gain access to the past 30 days of data for over 8000 Wavebouys and Weather Stations around the globe.

Join Pro

Comparision Forecast

View Surf forecast
   
Sun 08/31 5:50am 3.5ft 5s 4s 18 20 mph 1014.5mb 83f 83f
4:50am 3.5ft 5s 4s 16 20 mph 1014.1mb 83f 83f
3:50am 3.5ft 5s 4s 16 18 mph 1013.8mb 83f 82f
2:50am 3ft 6s 4s 16 20 mph 1013.8mb 83f 82f
1:50am 3ft 4s 4s 18 22 mph 1014.3mb 83f 83f
12:50am 2.5ft 9s 4s 16 20 mph 1014.8mb 83f 83f
Sat 08/30 11:50pm 2.5ft 5s 4s 18 20 mph 1015.3mb 84f 83f
10:50pm 2.5ft 4s 4s 16 18 mph 1015.5mb 84f 83f
9:50pm 2.5ft 8s 4s 16 18 mph 1014.9mb 84f 83f
8:50pm 2.5ft 7s 4s 13 16 mph 1014.6mb 84f 83f
7:50pm 2.5ft 8s 4s 13 16 mph 1014.5mb 84f 83f
6:50pm 2.5ft 8s 4s 11 13 mph 1014.5mb 84f 83f
5:50pm 2.5ft 9s 4s 13 16 mph 1014.4mb 84f 84f
4:50pm 2.5ft 8s 4s 13 16 mph 1014.7mb 84f 83f
3:50pm 2.5ft 8s 4s 13 16 mph 1015.1mb 84f 83f
2:50pm 2.5ft 8s 4s 13 16 mph 1015.1mb 84f 83f
1:50pm 2.5ft 8s 4s 13 16 mph 1015.9mb 84f 83f
12:50pm 2.5ft 6s 4s 16 18 mph 1016.4mb 84f 83f
11:50am 2.5ft 8s 4s 13 18 mph 1017.1mb 84f 83f
10:50am 2.5ft 6s 4s 13 16 mph 1017.1mb 83f 83f
9:50am 3ft 6s 4s 13 16 mph 1017mb 83f 83f
8:50am 2.5ft 6s 5s 13 16 mph 1016.9mb 83f 83f
7:50am 3ft 5s 5s 11 13 mph 1016.4mb 83f 82f
6:50am 3.5ft 6s 5s 9 11 mph 1015.5mb 83f 82f
5:50am 3.5ft 6s 5s 11 13 mph 1015.2mb 83f 82f
4:50am 3.5ft 8s 5s 11 13 mph 1014.9mb 83f 82f
3:50am 3.5ft 6s 4s 13 16 mph 1014.9mb 83f 82f
2:50am 3.5ft 6s 4s 16 18 mph 1015mb 83f 82f
1:50am 3.5ft 6s 4s 18 20 mph 1015.3mb 83f 82f
12:50am 3.5ft 6s 4s 16 20 mph 1016.2mb 83f 83f
Fri 08/29 11:50pm 3.5ft 6s 5s 16 18 mph 1016.6mb 83f 83f
10:50pm 3.5ft 6s 4s 16 18 mph 1016.6mb 84f 83f
9:50pm 4ft 6s 5s 16 18 mph 1016.4mb 84f 83f
8:50pm 4.5ft 7s 5s 18 20 mph 1015.8mb 84f 83f
7:50pm 4.5ft 6s 5s 18 20 mph 1015.1mb 84f 83f
6:50pm 4.5ft 6s 5s 18 20 mph 1014.6mb 84f 83f
5:50pm 5ft 6s 5s 16 20 mph 1014.2mb 84f 83f
4:50pm 4.5ft 6s 5s 18 22 mph 1013.7mb 84f 83f
3:50pm 4.5ft 7s 5s 18 22 mph 1013.6mb 84f 83f
2:50pm 5ft 6s 5s 18 20 mph 1013.9mb 84f 83f
1:50pm 5ft 6s 5s 18 22 mph 1014.4mb 84f 83f
12:50pm 5ft 7s 5s 18 20 mph 1015.1mb 84f 83f
11:50am 5ft 7s 5s 20 22 mph 1015.3mb 84f 83f
10:50am 5ft 6s 5s 20 22 mph 1015.6mb 83f 83f
9:50am 5ft 7s 5s 18 22 mph 1015.5mb 83f 83f
8:50am 5ft 6s 5s 20 22 mph 1015.1mb 83f 83f
7:50am 5ft 7s 5s 20 22 mph 1014.6mb 83f 83f
6:50am 5ft 6s 5s 20 22 mph 1014.1mb 83f 83f
5:50am 5.5ft 7s 5s 18 22 mph 1013.9mb 83f 83f
4:50am 5.5ft 6s 5s 20 22 mph 1013.2mb 83f 82f
3:50am 5.5ft 7s 5s 18 22 mph 1013.3mb 83f 82f
2:50am 5ft 7s 5s 20 22 mph 1013.2mb 83f 82f
1:50am 5.5ft 8s 5s 20 25 mph 1013.6mb 83f 82f
12:50am 6ft 6s 5s 20 22 mph 1014.1mb 83f 82f
Thu 08/28 11:50pm 6ft 7s 5s 20 22 mph 1014.5mb 83f 82f
10:50pm 6.5ft 7s 5s 20 25 mph 1014.7mb 83f 82f
9:50pm 7.5ft 8s 6s 20 22 mph 1014.7mb 83f 81f
8:50pm 7ft 8s 5s 22 25 mph 1014.1mb 83f 81f
7:50pm 7ft 7s 5s 25 31 mph 1012.8mb 83f 81f
6:50pm 6ft 8s 5s 25 29 mph 1012mb 83f 83f
5:50pm 6ft 8s 5s 25 29 mph 1011.1mb 83f 83f
4:50pm 5ft 8s 5s 22 27 mph 1011mb 84f 82f
3:50pm 5ft 9s 6s 18 22 mph 1011mb 84f 83f
2:50pm 5ft 8s 6s 16 18 mph 1010.9mb 84f 82f
1:50pm 5ft 8s 6s 11 13 mph 1011.8mb 84f 79f
12:50pm 5ft 8s 6s 20 25 mph 1012.6mb 83f 79f
11:50am 5ft 8s 6s 16 18 mph 1012.5mb 83f 81f
10:50am 5ft 8s 6s 13 16 mph 1012.9mb 83f 82f
9:50am 5.5ft 8s 6s 13 16 mph 1012.9mb 83f 81f
8:50am 6ft 7s 6s 16 20 mph 1012.8mb 83f 81f
7:50am 5ft 8s 5s 16 20 mph 1012.1mb 83f 81f
6:50am 5ft 8s 5s 20 25 mph 1011.4mb 83f 80f
5:50am 5.5ft 8s 5s 18 22 mph 1011.6mb 83f 80f
4:50am 5ft 7s 5s 16 20 mph 1011.4mb 83f 83f
3:50am 5ft 8s 5s 18 22 mph 1011.7mb 83f 82f
2:50am 5.5ft 8s 5s 18 20 mph 1011.8mb 84f 82f
1:50am 5ft 7s 5s 18 22 mph 1012.5mb 84f 82f
12:50am 5ft 7s 5s 22 27 mph 1013mb 84f 83f
Wed 08/27 11:50pm 5ft 7s 5s 18 22 mph 1013.4mb 84f 83f
10:50pm 5ft 7s 5s 16 20 mph 1014mb 84f 82f
9:50pm 5ft 7s 5s 20 22 mph 1014.5mb 84f 82f
8:50pm 5.5ft 8s 5s 18 22 mph 1013.9mb 84f 82f
7:50pm 5.5ft 7s 5s 18 20 mph 1014.1mb 84f 82f
6:50pm 5.5ft 7s 5s 20 25 mph 1013.1mb 84f 79f
5:50pm 5ft 6s 5s 18 22 mph 1012.7mb 84f 84f
4:50pm 5ft 6s 5s 18 22 mph 1012.5mb 84f 84f
3:50pm 5ft 7s 5s 18 20 mph 1012.9mb 84f 83f
2:50pm 4.5ft 7s 5s 20 22 mph 1012.9mb 84f 84f
1:50pm 5ft 7s 5s 16 18 mph 1013.7mb 84f 83f
12:50pm 5ft 7s 5s 18 20 mph 1014.2mb 84f 84f
11:50am 4.5ft 7s 5s 20 22 mph 1014.5mb 84f 84f